Milltown, Kentucky
Current Conditions -  °F | °C
As of 4:15 AM on Saturday 22 Nov 2014 (Local Time) from KGLW Reporting Station
Overcast Overcast  
Wind Chill: 44°   Ceiling: 11000
Heat Index: 46°   Visibility: 10mi
Dew Point: 28°   Wind: 5mph
Humidity: 50%   Direction: 190°S
Pressure: 30.33"   Gusts: NA
Location:  37.11°N, 85.46°W
Report Text: KGLW 221015Z AUTO 19004KT 10SM SCT095 OVC110 08/M02 A3033 RMK AO2 T00801020
Loading
Personal Weather Stations






























Interactive Weather Map New forecast layout! Learn more

10-Day Weather Forecast

Advertisements
Track Severe Weather on mobile